createdAt,value
2023-01-26T00:01:50.000Z,13.53
2023-01-26T00:04:13.000Z,15.95
2023-01-26T00:06:38.000Z,11.17
2023-01-26T00:09:06.000Z,10.83
2023-01-26T00:11:31.000Z,12.4
2023-01-26T00:13:56.000Z,12.3
2023-01-26T00:16:22.000Z,11.68
2023-01-26T00:18:49.000Z,10.63
2023-01-26T00:21:13.000Z,11.55
2023-01-26T00:23:39.000Z,10.23
2023-01-26T00:26:05.000Z,13.8
2023-01-26T00:28:31.000Z,11.6
2023-01-26T00:30:57.000Z,11
2023-01-26T00:33:23.000Z,12
2023-01-26T00:35:48.000Z,10.13
2023-01-26T00:38:14.000Z,12.7
2023-01-26T00:40:39.000Z,10.13
2023-01-26T00:43:06.000Z,7.87
2023-01-26T00:45:31.000Z,10.85
2023-01-26T00:47:56.000Z,7.8
2023-01-26T00:50:32.000Z,8.63
2023-01-26T00:52:48.000Z,7.9
2023-01-26T00:55:14.000Z,9.1
2023-01-26T00:57:39.000Z,5.9
2023-01-26T01:00:09.000Z,11.73
2023-01-26T01:02:31.000Z,5.12
2023-01-26T01:04:56.000Z,4.1
2023-01-26T01:07:24.000Z,5.23
2023-01-26T01:09:53.000Z,5.33
2023-01-26T01:12:17.000Z,6.85
2023-01-26T01:14:41.000Z,5.15
2023-01-26T01:17:06.000Z,6.22
2023-01-26T01:19:33.000Z,6.65
2023-01-26T01:21:59.000Z,6.9
2023-01-26T01:24:25.000Z,7.97
2023-01-26T01:26:50.000Z,5.28
2023-01-26T01:29:17.000Z,5.3
2023-01-26T01:31:42.000Z,6.53
2023-01-26T01:34:07.000Z,5.47
2023-01-26T01:36:33.000Z,4.95
2023-01-26T01:38:59.000Z,3.1
2023-01-26T01:41:25.000Z,6.92
2023-01-26T01:43:52.000Z,5.87
2023-01-26T01:46:16.000Z,4.27
2023-01-26T01:48:43.000Z,7.08
2023-01-26T01:51:10.000Z,4.53
2023-01-26T01:53:38.000Z,6.37
2023-01-26T01:56:03.000Z,6.35
2023-01-26T01:58:27.000Z,6.08
2023-01-26T02:00:53.000Z,9.15
2023-01-26T02:03:18.000Z,31.07
2023-01-26T02:05:44.000Z,26.55
2023-01-26T02:08:10.000Z,45.43
2023-01-26T02:10:35.000Z,21.3
2023-01-26T02:13:01.000Z,76.1
2023-01-26T02:15:28.000Z,67.2
2023-01-26T02:17:53.000Z,44.42
2023-01-26T02:20:18.000Z,41.05
2023-01-26T02:22:44.000Z,54.8
2023-01-26T02:25:11.000Z,28
2023-01-26T02:27:36.000Z,19.27
2023-01-26T02:30:01.000Z,8.93
2023-01-26T02:32:27.000Z,15.98
2023-01-26T02:34:53.000Z,18.93
2023-01-26T02:37:19.000Z,16.1
2023-01-26T02:39:45.000Z,39.42
2023-01-26T02:42:10.000Z,22.4
2023-01-26T02:44:36.000Z,46.23
2023-01-26T02:47:01.000Z,29.53
2023-01-26T02:49:28.000Z,19.17
2023-01-26T02:51:53.000Z,22.98
2023-01-26T02:54:19.000Z,20.5
2023-01-26T02:56:46.000Z,16.02
2023-01-26T02:59:13.000Z,15.2
2023-01-26T03:01:49.000Z,21.97
2023-01-26T03:04:03.000Z,18.57
2023-01-26T03:06:28.000Z,20.33
2023-01-26T03:08:54.000Z,18.3
2023-01-26T03:11:21.000Z,15.53
2023-01-26T03:13:46.000Z,27.37
2023-01-26T03:16:11.000Z,22.55
2023-01-26T03:18:39.000Z,25.37
2023-01-26T03:21:04.000Z,20.82
2023-01-26T03:23:29.000Z,20.75
2023-01-26T03:25:55.000Z,18.75
2023-01-26T03:28:21.000Z,24.27
2023-01-26T03:30:47.000Z,17.15
2023-01-26T03:33:14.000Z,18.77
2023-01-26T03:35:40.000Z,21.73
2023-01-26T03:38:05.000Z,19.03
2023-01-26T03:40:31.000Z,19.43
2023-01-26T03:42:56.000Z,17.65
2023-01-26T03:45:23.000Z,16
2023-01-26T03:47:48.000Z,16.5
2023-01-26T03:50:14.000Z,17
2023-01-26T03:52:39.000Z,16.55
2023-01-26T03:55:07.000Z,18.8
2023-01-26T03:57:31.000Z,17.27
2023-01-26T03:59:58.000Z,18.53
2023-01-26T04:02:23.000Z,18.52
2023-01-26T04:04:48.000Z,19.62
2023-01-26T04:07:14.000Z,17.43
2023-01-26T04:09:39.000Z,23.47
2023-01-26T04:12:05.000Z,22.55
2023-01-26T04:14:31.000Z,18.37
2023-01-26T04:16:56.000Z,19.05
2023-01-26T04:19:24.000Z,20.6
2023-01-26T04:21:50.000Z,19.1
2023-01-26T04:24:15.000Z,17.87
2023-01-26T04:26:41.000Z,16.45
2023-01-26T04:29:07.000Z,22.37
2023-01-26T04:31:33.000Z,17.97
2023-01-26T04:34:00.000Z,16.32
2023-01-26T04:36:26.000Z,16.75
2023-01-26T04:38:52.000Z,14.8
2023-01-26T04:41:18.000Z,18.87
2023-01-26T04:43:44.000Z,15.43
2023-01-26T04:46:10.000Z,15.63
2023-01-26T04:48:36.000Z,15.43
2023-01-26T04:51:02.000Z,21.37
2023-01-26T04:53:27.000Z,21.8
2023-01-26T04:55:54.000Z,22.87
2023-01-26T04:58:19.000Z,19.57
2023-01-26T05:00:47.000Z,22.3
2023-01-26T05:03:12.000Z,18.2
2023-01-26T05:05:38.000Z,17.3
2023-01-26T05:08:04.000Z,19.32
2023-01-26T05:10:30.000Z,22.27
2023-01-26T05:12:55.000Z,16.45
2023-01-26T05:15:22.000Z,19.17
2023-01-26T05:17:47.000Z,14.85
2023-01-26T05:20:21.000Z,16.87
2023-01-26T05:22:39.000Z,21.83
2023-01-26T05:25:05.000Z,15.37
2023-01-26T05:27:31.000Z,16.37
2023-01-26T05:29:57.000Z,20.82
2023-01-26T05:32:22.000Z,17.93
2023-01-26T05:34:48.000Z,18.2
2023-01-26T05:37:13.000Z,19.4
2023-01-26T05:39:39.000Z,16.85
2023-01-26T05:42:06.000Z,20.47
2023-01-26T05:44:31.000Z,16.07
2023-01-26T05:46:57.000Z,18.3
2023-01-26T05:49:23.000Z,19.62
2023-01-26T05:51:48.000Z,17.33
2023-01-26T05:54:14.000Z,16.73
2023-01-26T05:56:40.000Z,18.73
2023-01-26T05:59:07.000Z,23.47
2023-01-26T06:02:02.000Z,18.63
2023-01-26T06:04:10.000Z,21.02
2023-01-26T06:06:23.000Z,27.07
2023-01-26T06:08:49.000Z,17.3
2023-01-26T06:11:17.000Z,21.5
2023-01-26T06:13:41.000Z,23.67
2023-01-26T06:16:07.000Z,20.83
2023-01-26T06:18:32.000Z,22.57
2023-01-26T06:20:58.000Z,26.8
2023-01-26T06:23:24.000Z,25.65
2023-01-26T06:25:49.000Z,30.7
2023-01-26T06:28:15.000Z,24.7
2023-01-26T06:30:41.000Z,22.57
2023-01-26T06:33:08.000Z,33.35
2023-01-26T06:35:32.000Z,21.07
2023-01-26T06:37:59.000Z,28.8
2023-01-26T06:40:26.000Z,23.5
2023-01-26T06:42:50.000Z,23.37
2023-01-26T06:45:18.000Z,25.37
2023-01-26T06:47:42.000Z,26.5
2023-01-26T06:50:09.000Z,22.67
2023-01-26T06:52:34.000Z,25.27
2023-01-26T06:55:00.000Z,21.9
2023-01-26T06:57:25.000Z,24.4
2023-01-26T06:59:52.000Z,24.1
2023-01-26T07:02:21.000Z,24
2023-01-26T07:04:45.000Z,28.75
2023-01-26T07:07:10.000Z,25.85
2023-01-26T07:09:37.000Z,24.63
2023-01-26T07:12:02.000Z,24.97
2023-01-26T07:14:27.000Z,27.6
2023-01-26T07:16:53.000Z,29
2023-01-26T07:19:19.000Z,27.6
2023-01-26T07:21:45.000Z,27.98
2023-01-26T07:24:11.000Z,30.68
2023-01-26T07:26:36.000Z,28.83
2023-01-26T07:29:01.000Z,25.73
2023-01-26T07:31:28.000Z,37.97
2023-01-26T07:33:53.000Z,30.6
2023-01-26T07:36:18.000Z,29.92
2023-01-26T07:38:50.000Z,27.17
2023-01-26T07:41:11.000Z,24.73
2023-01-26T07:43:38.000Z,29.8
2023-01-26T07:46:03.000Z,29.25
2023-01-26T07:48:28.000Z,25.67
2023-01-26T07:51:05.000Z,24.15
2023-01-26T07:53:21.000Z,25.25
2023-01-26T07:55:47.000Z,25.43
2023-01-26T07:58:12.000Z,34.53
2023-01-26T08:00:55.000Z,25.55
2023-01-26T08:03:04.000Z,27.35
2023-01-26T08:05:30.000Z,28.15
2023-01-26T08:07:56.000Z,25.57
2023-01-26T08:10:24.000Z,25.2
2023-01-26T08:12:49.000Z,24.3
2023-01-26T08:15:13.000Z,24.67
2023-01-26T08:17:39.000Z,26.73
2023-01-26T08:20:07.000Z,26.42
2023-01-26T08:22:32.000Z,19.63
2023-01-26T08:24:57.000Z,22.73
2023-01-26T08:27:22.000Z,26.3
2023-01-26T08:29:48.000Z,23.87
2023-01-26T08:32:13.000Z,23.7
2023-01-26T08:34:39.000Z,23.3
2023-01-26T08:37:05.000Z,24.3
2023-01-26T08:39:31.000Z,24.77
2023-01-26T08:41:58.000Z,23.95
2023-01-26T08:44:22.000Z,20.6
2023-01-26T08:46:48.000Z,22.75
2023-01-26T08:49:15.000Z,23.67
2023-01-26T08:51:40.000Z,27.2
2023-01-26T08:54:06.000Z,26.82
2023-01-26T08:56:32.000Z,26.05
2023-01-26T08:58:58.000Z,23
2023-01-26T09:01:29.000Z,24.2
2023-01-26T09:03:50.000Z,22.93
2023-01-26T09:06:15.000Z,24.3
2023-01-26T09:08:44.000Z,22.05
2023-01-26T09:11:08.000Z,25.08
2023-01-26T09:13:34.000Z,29.37
2023-01-26T09:15:59.000Z,24.7
2023-01-26T09:18:26.000Z,26.2
2023-01-26T09:20:52.000Z,24.17
2023-01-26T09:23:17.000Z,26.93
2023-01-26T09:25:43.000Z,23.73
2023-01-26T09:28:09.000Z,24.33
2023-01-26T09:30:38.000Z,23.97
2023-01-26T09:33:27.000Z,25.92
2023-01-26T09:35:27.000Z,29.5
2023-01-26T09:37:54.000Z,31.95
2023-01-26T09:40:26.000Z,32
2023-01-26T09:42:44.000Z,28.27
2023-01-26T09:45:12.000Z,32.73
2023-01-26T09:47:36.000Z,31.73
2023-01-26T09:50:02.000Z,28.57
2023-01-26T09:52:28.000Z,37.63
2023-01-26T09:54:54.000Z,35.03
2023-01-26T09:57:20.000Z,36.73
2023-01-26T09:59:53.000Z,31.93
2023-01-26T10:02:13.000Z,34.07
2023-01-26T10:04:39.000Z,36.33
2023-01-26T10:07:05.000Z,29.92
2023-01-26T10:09:31.000Z,34.8
2023-01-26T10:11:57.000Z,30.27
2023-01-26T10:14:22.000Z,33.85
2023-01-26T10:16:50.000Z,34.55
2023-01-26T10:19:15.000Z,32.4
2023-01-26T10:21:40.000Z,33.58
2023-01-26T10:24:06.000Z,33.6
2023-01-26T10:26:33.000Z,31.33
2023-01-26T10:29:01.000Z,29.3
2023-01-26T10:31:26.000Z,33.95
2023-01-26T10:33:52.000Z,35.33
2023-01-26T10:36:18.000Z,30.48
2023-01-26T10:38:44.000Z,29.4
2023-01-26T10:41:10.000Z,31.87
2023-01-26T10:43:35.000Z,31.05
2023-01-26T10:46:01.000Z,27.87
2023-01-26T10:48:27.000Z,32.03
2023-01-26T10:50:59.000Z,32.08
2023-01-26T10:53:22.000Z,28.9
2023-01-26T10:55:45.000Z,30.53
2023-01-26T10:58:10.000Z,28.53
2023-01-26T11:00:38.000Z,26.97
2023-01-26T11:03:01.000Z,32.1
2023-01-26T11:05:27.000Z,25.27
2023-01-26T11:07:53.000Z,26.07
2023-01-26T11:10:21.000Z,27.67
2023-01-26T11:12:45.000Z,27.03
2023-01-26T11:15:11.000Z,27.05
2023-01-26T11:17:36.000Z,29.5
2023-01-26T11:20:03.000Z,31.6
2023-01-26T11:22:29.000Z,29.48
2023-01-26T11:24:54.000Z,31.6
2023-01-26T11:27:20.000Z,30.23
2023-01-26T11:29:46.000Z,29.92
2023-01-26T11:32:12.000Z,33.92
2023-01-26T11:34:38.000Z,29.75
2023-01-26T11:37:03.000Z,32
2023-01-26T11:39:29.000Z,36.05
2023-01-26T11:41:55.000Z,30.27
2023-01-26T11:44:21.000Z,27.93
2023-01-26T11:46:46.000Z,27.73
2023-01-26T11:49:13.000Z,31.35
2023-01-26T11:51:47.000Z,30.45
2023-01-26T11:54:04.000Z,34.45
2023-01-26T11:56:29.000Z,28.32
2023-01-26T11:58:55.000Z,28.17
2023-01-26T12:01:24.000Z,33.13
2023-01-26T12:03:47.000Z,28
2023-01-26T12:06:13.000Z,29.52
2023-01-26T12:08:38.000Z,27.42
2023-01-26T12:11:19.000Z,29.57
2023-01-26T12:13:30.000Z,32.7
2023-01-26T12:15:56.000Z,33.9
2023-01-26T12:18:22.000Z,30.63
2023-01-26T12:20:48.000Z,36.98
2023-01-26T12:23:12.000Z,31.7
2023-01-26T12:25:39.000Z,25.1
2023-01-26T12:28:05.000Z,28.77
2023-01-26T12:30:36.000Z,27.1
2023-01-26T12:32:56.000Z,37.28
2023-01-26T12:35:22.000Z,28.52
2023-01-26T12:37:48.000Z,29.2
2023-01-26T12:40:17.000Z,26.47
2023-01-26T12:42:42.000Z,30.4
2023-01-26T12:45:06.000Z,25.45
2023-01-26T12:47:31.000Z,26.12
2023-01-26T12:49:56.000Z,25.1
2023-01-26T12:52:23.000Z,23.5
2023-01-26T12:54:48.000Z,22.87
2023-01-26T12:57:14.000Z,22.85
2023-01-26T12:59:46.000Z,23.4
2023-01-26T13:02:16.000Z,27.15
2023-01-26T13:04:32.000Z,22.4
2023-01-26T13:06:57.000Z,21.9
2023-01-26T13:09:25.000Z,22.07
2023-01-26T13:11:49.000Z,18.83
2023-01-26T13:14:14.000Z,18.6
2023-01-26T13:16:40.000Z,18.4
2023-01-26T13:19:07.000Z,22.3
2023-01-26T13:21:33.000Z,14.1
2023-01-26T13:23:59.000Z,18.33
2023-01-26T13:26:27.000Z,18.37
2023-01-26T13:28:51.000Z,17.47
2023-01-26T13:31:17.000Z,18.62
2023-01-26T13:33:42.000Z,18.95
2023-01-26T13:36:08.000Z,18.5
2023-01-26T13:38:41.000Z,16
2023-01-26T13:41:00.000Z,17.62
2023-01-26T13:43:25.000Z,15.6
2023-01-26T13:45:51.000Z,13.88
2023-01-26T13:48:22.000Z,15.35
2023-01-26T13:50:52.000Z,15.13
2023-01-26T13:53:09.000Z,13.53
2023-01-26T13:55:35.000Z,14.5
2023-01-26T13:58:00.000Z,15.85
2023-01-26T14:00:51.000Z,13.43
2023-01-26T14:02:52.000Z,17
2023-01-26T14:05:18.000Z,15.7
2023-01-26T14:07:44.000Z,14.93
2023-01-26T14:10:10.000Z,16
2023-01-26T14:12:37.000Z,17.75
2023-01-26T14:15:01.000Z,14.3
2023-01-26T14:17:29.000Z,12.07
2023-01-26T14:19:54.000Z,12.65
2023-01-26T14:22:20.000Z,11.93
2023-01-26T14:24:45.000Z,13.3
2023-01-26T14:27:11.000Z,14.17
2023-01-26T14:29:37.000Z,14.2
2023-01-26T14:32:04.000Z,9.73
2023-01-26T14:34:28.000Z,11.7
2023-01-26T14:36:53.000Z,11.5
2023-01-26T14:39:23.000Z,12.58
2023-01-26T14:42:01.000Z,12.33
2023-01-26T14:44:12.000Z,12.18
2023-01-26T14:46:37.000Z,12.5
2023-01-26T14:49:03.000Z,11.67
2023-01-26T14:51:29.000Z,11.97
2023-01-26T14:53:55.000Z,9.43
2023-01-26T14:56:20.000Z,10
2023-01-26T14:58:46.000Z,11.37
2023-01-26T15:01:11.000Z,13.93
2023-01-26T15:03:36.000Z,9.7
2023-01-26T15:06:02.000Z,12.43
2023-01-26T15:08:35.000Z,12.2
2023-01-26T15:11:02.000Z,10.3
2023-01-26T15:13:21.000Z,9.4
2023-01-26T15:15:49.000Z,9.53
2023-01-26T15:18:14.000Z,8.1
2023-01-26T15:20:45.000Z,12.43
2023-01-26T15:23:09.000Z,11.7
2023-01-26T15:25:36.000Z,9.65
2023-01-26T15:28:02.000Z,8.83
2023-01-26T15:30:30.000Z,10.93
2023-01-26T15:32:55.000Z,9.65
2023-01-26T15:35:20.000Z,9.93
2023-01-26T15:37:46.000Z,9.27
2023-01-26T15:40:31.000Z,10.87
2023-01-26T15:42:40.000Z,11.57
2023-01-26T15:45:07.000Z,10.25
2023-01-26T15:47:31.000Z,8.53
2023-01-26T15:49:57.000Z,8.18
2023-01-26T15:52:24.000Z,11.2
2023-01-26T15:54:48.000Z,9.15
2023-01-26T15:57:14.000Z,9.33
2023-01-26T15:59:40.000Z,7.37
2023-01-26T16:02:58.000Z,7.8
2023-01-26T16:04:31.000Z,10.18
2023-01-26T16:06:57.000Z,6.1
2023-01-26T16:09:26.000Z,7.75
2023-01-26T16:11:49.000Z,6.83
2023-01-26T16:14:14.000Z,9.93
2023-01-26T16:16:41.000Z,7.7
2023-01-26T16:19:06.000Z,6.87
2023-01-26T16:21:31.000Z,6.92
2023-01-26T16:23:57.000Z,8.87
2023-01-26T16:26:24.000Z,6.23
2023-01-26T16:28:50.000Z,7.67
2023-01-26T16:31:16.000Z,9.1
2023-01-26T16:33:42.000Z,6.92
2023-01-26T16:36:07.000Z,8.23
2023-01-26T16:38:33.000Z,8.4
2023-01-26T16:40:58.000Z,7.9
2023-01-26T16:43:25.000Z,7.28
2023-01-26T16:45:51.000Z,7.1
2023-01-26T16:48:18.000Z,6.73
2023-01-26T16:50:44.000Z,7.6
2023-01-26T16:53:11.000Z,6.1
2023-01-26T16:55:35.000Z,7.15
2023-01-26T16:58:00.000Z,6.65
2023-01-26T17:00:29.000Z,8.2
2023-01-26T17:02:52.000Z,9.35
2023-01-26T17:05:18.000Z,6.4
2023-01-26T17:07:43.000Z,6.17
2023-01-26T17:10:15.000Z,7.67
2023-01-26T17:12:42.000Z,6.12
2023-01-26T17:15:00.000Z,6.57
2023-01-26T17:17:27.000Z,7.33
2023-01-26T17:19:53.000Z,8.03
2023-01-26T17:22:21.000Z,6.12
2023-01-26T17:24:44.000Z,6.65
2023-01-26T17:27:10.000Z,8.28
2023-01-26T17:29:36.000Z,8.53
2023-01-26T17:32:02.000Z,7.75
2023-01-26T17:34:27.000Z,6.7
2023-01-26T17:36:53.000Z,7.87
2023-01-26T17:39:18.000Z,5.47
2023-01-26T17:41:48.000Z,7.7
2023-01-26T17:44:11.000Z,7.67
2023-01-26T17:46:39.000Z,9.2
2023-01-26T17:49:05.000Z,7.83
2023-01-26T17:51:43.000Z,6.78
2023-01-26T17:53:56.000Z,7.55
2023-01-26T17:56:22.000Z,8.43
2023-01-26T17:58:47.000Z,7.37
2023-01-26T18:01:15.000Z,6.58
2023-01-26T18:03:39.000Z,6.9
2023-01-26T18:06:06.000Z,6.97
2023-01-26T18:08:30.000Z,6.55
2023-01-26T18:10:58.000Z,9.1
2023-01-26T18:13:22.000Z,8.5
2023-01-26T18:15:48.000Z,6.4
2023-01-26T18:18:13.000Z,8.25
2023-01-26T18:20:39.000Z,8.68
2023-01-26T18:23:06.000Z,8.8
2023-01-26T18:25:31.000Z,7.47
2023-01-26T18:27:58.000Z,7.53
2023-01-26T18:30:23.000Z,9.78
2023-01-26T18:32:49.000Z,10.65
2023-01-26T18:35:14.000Z,9.8
2023-01-26T18:37:40.000Z,11.97
2023-01-26T18:40:09.000Z,7.83
2023-01-26T18:42:32.000Z,8.05
2023-01-26T18:44:59.000Z,7.85
2023-01-26T18:47:25.000Z,8.88
2023-01-26T18:49:52.000Z,9.78
2023-01-26T18:52:17.000Z,8.9
2023-01-26T18:54:44.000Z,10.28
2023-01-26T18:57:10.000Z,10.68
2023-01-26T18:59:38.000Z,9.75
2023-01-26T19:02:02.000Z,11.93
2023-01-26T19:04:27.000Z,10.23
2023-01-26T19:06:53.000Z,9.3
2023-01-26T19:09:19.000Z,10.67
2023-01-26T19:11:46.000Z,11.2
2023-01-26T19:14:11.000Z,9.6
2023-01-26T19:16:36.000Z,10.55
2023-01-26T19:19:02.000Z,10.7
2023-01-26T19:21:30.000Z,10.93
2023-01-26T19:23:54.000Z,10.05
2023-01-26T19:26:19.000Z,11.6
2023-01-26T19:28:46.000Z,11.37
2023-01-26T19:31:11.000Z,9.7
2023-01-26T19:33:37.000Z,10.75
2023-01-26T19:36:02.000Z,11.25
2023-01-26T19:38:28.000Z,12.07
2023-01-26T19:41:28.000Z,9.7
2023-01-26T19:43:31.000Z,10.7
2023-01-26T19:45:45.000Z,12.2
2023-01-26T19:48:11.000Z,13.72
2023-01-26T19:50:36.000Z,11.83
2023-01-26T19:53:03.000Z,11
2023-01-26T19:55:29.000Z,11.83
2023-01-26T19:57:54.000Z,16.95
2023-01-26T20:00:27.000Z,9.9
2023-01-26T20:02:46.000Z,10.95
2023-01-26T20:05:13.000Z,12.83
2023-01-26T20:07:37.000Z,13.33
2023-01-26T20:10:08.000Z,13.53
2023-01-26T20:12:30.000Z,14.98
2023-01-26T20:14:55.000Z,16
2023-01-26T20:17:23.000Z,15.28
2023-01-26T20:17:40.000Z,14.63
2023-01-26T20:19:47.000Z,14.4
2023-01-26T20:22:12.000Z,13.65
2023-01-26T20:24:37.000Z,15.3
2023-01-26T20:27:03.000Z,13.43
2023-01-26T20:29:28.000Z,17.57
2023-01-26T20:31:54.000Z,17.57
2023-01-26T20:34:21.000Z,16.67
2023-01-26T20:36:46.000Z,16.93
2023-01-26T20:39:13.000Z,18.07
2023-01-26T20:41:41.000Z,19.93
2023-01-26T20:44:03.000Z,18.97
2023-01-26T20:46:29.000Z,18.15
2023-01-26T20:48:55.000Z,18.67
2023-01-26T20:51:22.000Z,17.67
2023-01-26T20:53:56.000Z,19.4
2023-01-26T20:54:26.000Z,23.62
2023-01-26T20:56:13.000Z,20.62
2023-01-26T20:58:38.000Z,20.1
2023-01-26T21:01:04.000Z,20.2
2023-01-26T21:03:29.000Z,20.67
2023-01-26T21:05:56.000Z,20.48
2023-01-26T21:08:22.000Z,17.05
2023-01-26T21:10:48.000Z,17.2
2023-01-26T21:13:13.000Z,18.35
2023-01-26T21:15:39.000Z,18.5
2023-01-26T21:18:07.000Z,17.7
2023-01-26T21:20:35.000Z,16.67
2023-01-26T21:22:55.000Z,18.65
2023-01-26T21:25:22.000Z,22.2
2023-01-26T21:27:47.000Z,21.27
2023-01-26T21:30:18.000Z,16.87
2023-01-26T21:32:40.000Z,17.73
2023-01-26T21:35:06.000Z,18.8
2023-01-26T21:37:30.000Z,16.3
2023-01-26T21:39:56.000Z,16.52
2023-01-26T21:42:22.000Z,16.63
2023-01-26T21:44:47.000Z,16.77
2023-01-26T21:47:14.000Z,17.77
2023-01-26T21:49:39.000Z,14.98
2023-01-26T21:52:05.000Z,15.68
2023-01-26T21:54:31.000Z,17.65
2023-01-26T21:56:57.000Z,16.02
2023-01-26T21:59:25.000Z,16.67
2023-01-26T22:01:58.000Z,17.27
2023-01-26T22:04:14.000Z,18
2023-01-26T22:06:40.000Z,16.87
2023-01-26T22:09:09.000Z,17.82
2023-01-26T22:11:37.000Z,17.17
2023-01-26T22:13:57.000Z,16.02
2023-01-26T22:16:23.000Z,18.93
2023-01-26T22:18:49.000Z,15.77
2023-01-26T22:21:15.000Z,19.2
2023-01-26T22:23:40.000Z,19.82
2023-01-26T22:26:07.000Z,18.45
2023-01-26T22:28:32.000Z,15.53
2023-01-26T22:30:59.000Z,19
2023-01-26T22:33:28.000Z,19.55
2023-01-26T22:35:50.000Z,18.23
2023-01-26T22:38:17.000Z,20.7
2023-01-26T22:40:41.000Z,22.57
2023-01-26T22:43:11.000Z,22.1
2023-01-26T22:45:37.000Z,15.3
2023-01-26T22:48:00.000Z,16.5
2023-01-26T22:50:26.000Z,18.57
2023-01-26T22:52:51.000Z,19.25
2023-01-26T22:55:18.000Z,19.73
2023-01-26T22:57:45.000Z,19.97
2023-01-26T23:00:15.000Z,22.43
2023-01-26T23:02:34.000Z,19.32
2023-01-26T23:05:00.000Z,18.8
2023-01-26T23:07:25.000Z,21.17
2023-01-26T23:09:53.000Z,20.47
2023-01-26T23:12:17.000Z,16.52
2023-01-26T23:14:43.000Z,19.87
2023-01-26T23:17:10.000Z,18.85
2023-01-26T23:19:37.000Z,18.25
2023-01-26T23:22:01.000Z,18.02
2023-01-26T23:24:27.000Z,17.5
2023-01-26T23:26:53.000Z,18.7
2023-01-26T23:29:19.000Z,18.6
2023-01-26T23:31:47.000Z,19.57
2023-01-26T23:34:10.000Z,19.7
2023-01-26T23:36:36.000Z,18.67
2023-01-26T23:39:06.000Z,20.05
2023-01-26T23:41:28.000Z,18.8
2023-01-26T23:43:54.000Z,21.3
2023-01-26T23:46:20.000Z,22.67
2023-01-26T23:48:51.000Z,20.57
2023-01-26T23:51:28.000Z,20.27
2023-01-26T23:53:38.000Z,21.35
2023-01-26T23:56:03.000Z,22.82
2023-01-26T23:58:29.000Z,25.5
